Time;durP1;ratioP1;P1;durP2;ratioP2;P2;SDS_P1;SDS_P2;PMS_P1;PMS_P2;Temp;Humidity;BMP_temperature;BMP_pressure;BME280_temperature;BME280_humidity;BME280_pressure;Samples;Min_cycle;Max_cycle;Signal;HPM_P1;HPM_P2
2021/10/15 00:01:12;;;;;;;25.90;13.30;;;;;;;5.51;65.64;99429.55;113931;1191;94739;-70
2021/10/15 00:03:40;;;;;;;25.60;12.20;;;;;;;5.48;65.49;99428.46;113973;1193;107934;-71
2021/10/15 00:06:08;;;;;;;27.20;12.60;;;;;;;5.47;65.66;99427.30;113747;1192;96299;-72
2021/10/15 00:08:36;;;;;;;25.80;12.60;;;;;;;5.45;65.58;99420.88;113642;1193;96646;-72
2021/10/15 00:11:05;;;;;;;25.80;12.00;;;;;;;5.43;65.64;99424.84;113731;1193;109472;-70
2021/10/15 00:13:33;;;;;;;27.30;12.90;;;;;;;5.42;65.57;99422.42;113483;1193;97013;-71
2021/10/15 00:16:02;;;;;;;25.10;12.30;;;;;;;5.41;65.71;99426.33;113747;1192;106543;-71
2021/10/15 00:18:30;;;;;;;26.00;12.70;;;;;;;5.39;65.71;99425.71;113667;1192;96317;-71
2021/10/15 00:20:57;;;;;;;26.40;12.70;;;;;;;5.37;65.65;99423.33;113807;1192;93957;-70
2021/10/15 00:23:27;;;;;;;25.10;11.30;;;;;;;5.37;65.70;99421.94;113938;1193;110793;-73
2021/10/15 00:25:55;;;;;;;26.00;11.60;;;;;;;5.35;65.62;99416.38;113755;1192;94203;-71
2021/10/15 00:28:22;;;;;;;23.60;10.40;;;;;;;5.34;65.58;99414.48;113702;1192;107491;-71
2021/10/15 00:30:50;;;;;;;24.00;10.80;;;;;;;5.34;65.63;99414.83;113585;1192;96216;-72
2021/10/15 00:33:18;;;;;;;23.50;10.80;;;;;;;5.33;65.67;99411.05;113736;1193;96319;-71
2021/10/15 00:35:46;;;;;;;23.90;10.50;;;;;;;5.32;65.69;99411.09;113667;1193;110365;-70
2021/10/15 00:38:14;;;;;;;23.30;10.60;;;;;;;5.32;65.74;99407.73;113656;1192;94484;-71
2021/10/15 00:40:42;;;;;;;23.90;11.50;;;;;;;5.32;65.83;99397.88;113646;1193;107612;-73
2021/10/15 00:43:10;;;;;;;23.30;11.00;;;;;;;5.31;65.75;99398.14;113551;1192;94504;-73
2021/10/15 00:45:38;;;;;;;23.00;11.50;;;;;;;5.30;65.80;99394.63;113740;1191;96292;-75
2021/10/15 00:48:06;;;;;;;25.30;11.50;;;;;;;5.30;65.65;99396.73;113741;1192;108945;-73
2021/10/15 00:50:35;;;;;;;24.10;11.50;;;;;;;5.27;65.81;99393.36;113693;1191;96183;-72
2021/10/15 00:53:03;;;;;;;26.50;12.80;;;;;;;5.26;65.83;99391.30;113746;1192;107487;-71
2021/10/15 00:55:32;;;;;;;24.60;12.20;;;;;;;5.25;65.77;99390.66;113279;1193;96296;-71
2021/10/15 00:58:01;;;;;;;23.50;12.10;;;;;;;5.23;65.85;99389.52;113740;1192;96143;-71
2021/10/15 01:00:30;;;;;;;24.60;12.10;;;;;;;5.20;65.90;99388.59;113701;1192;109920;-72
2021/10/15 01:02:58;;;;;;;26.50;12.60;;;;;;;5.17;65.88;99389.77;113646;1192;96297;-72
2021/10/15 01:05:26;;;;;;;25.50;12.00;;;;;;;5.16;65.81;99388.74;113613;1192;107543;-72
2021/10/15 01:07:56;;;;;;;25.50;12.50;;;;;;;5.14;65.90;99383.03;113137;1195;96300;-72
2021/10/15 01:10:26;;;;;;;24.60;11.40;;;;;;;5.14;65.90;99379.52;113525;1193;96389;-71
2021/10/15 01:12:55;;;;;;;23.90;11.70;;;;;;;5.14;66.01;99380.77;113593;1192;109356;-71
2021/10/15 01:15:24;;;;;;;25.80;11.70;;;;;;;5.11;65.93;99380.17;113719;1192;96251;-70
2021/10/15 01:17:51;;;;;;;22.90;10.90;;;;;;;5.10;65.95;99378.65;113722;1192;107512;-72
2021/10/15 01:20:19;;;;;;;22.90;10.70;;;;;;;5.09;65.90;99379.61;113770;1192;96655;-72
2021/10/15 01:22:47;;;;;;;23.40;11.50;;;;;;;5.09;66.02;99378.02;113748;1192;96332;-71
2021/10/15 01:25:16;;;;;;;25.00;11.20;;;;;;;5.09;66.09;99379.74;113735;1192;109890;-71
2021/10/15 01:27:44;;;;;;;23.60;11.80;;;;;;;5.09;65.97;99373.08;113696;1193;96154;-71
2021/10/15 01:30:11;;;;;;;23.90;11.80;;;;;;;5.10;66.09;99370.07;113575;1184;108343;-71
2021/10/15 01:32:39;;;;;;;25.00;11.20;;;;;;;5.09;66.06;99373.08;113652;1192;94508;-71
2021/10/15 01:35:07;;;;;;;22.50;10.90;;;;;;;5.09;66.05;99376.92;113622;1191;94504;-71
2021/10/15 01:37:35;;;;;;;25.40;11.50;;;;;;;5.10;66.07;99376.41;113695;1192;109591;-72
2021/10/15 01:40:04;;;;;;;24.80;11.60;;;;;;;5.10;66.11;99369.71;113657;1192;96274;-71
2021/10/15 01:45:19;;;;;;;23.20;11.10;;;;;;;5.10;66.07;99365.30;113381;1193;96325;-72
2021/10/15 01:47:47;;;;;;;23.30;11.40;;;;;;;5.10;66.00;99360.94;113704;1192;96252;-72
2021/10/15 01:50:15;;;;;;;23.00;10.10;;;;;;;5.10;66.14;99356.54;113312;1193;109777;-72
2021/10/15 01:52:42;;;;;;;22.70;10.60;;;;;;;5.10;66.18;99359.84;113661;1193;94509;-72
2021/10/15 01:55:11;;;;;;;21.50;9.90;;;;;;;5.11;66.06;99357.36;113563;1195;106380;-71
2021/10/15 01:57:40;;;;;;;20.90;9.40;;;;;;;5.11;66.07;99360.34;113642;1192;96332;-72
2021/10/15 02:00:10;;;;;;;21.90;10.10;;;;;;;5.12;66.22;99355.52;114926;1191;94146;-72
2021/10/15 02:02:39;;;;;;;21.40;10.50;;;;;;;5.14;66.21;99348.43;113630;1192;108946;-72
2021/10/15 02:05:10;;;;;;;22.20;10.10;;;;;;;5.15;66.23;99348.01;113817;1191;96278;-72
2021/10/15 02:07:38;;;;;;;22.70;9.60;;;;;;;5.17;66.25;99346.88;113702;1193;107198;-73
2021/10/15 02:10:08;;;;;;;22.00;10.30;;;;;;;5.18;66.23;99346.64;113788;1193;94006;-71
2021/10/15 02:12:37;;;;;;;22.20;10.20;;;;;;;5.19;66.13;99346.44;113781;1193;96309;-71
2021/10/15 02:15:07;;;;;;;22.00;10.10;;;;;;;5.20;66.31;99346.57;113648;1192;109786;-73
2021/10/15 02:17:35;;;;;;;22.00;10.00;;;;;;;5.21;66.23;99348.11;113790;1193;95095;-72
2021/10/15 02:20:07;;;;;;;21.00;9.00;;;;;;;5.22;66.31;99347.53;113760;1192;107542;-72
2021/10/15 02:22:40;;;;;;;21.30;9.40;;;;;;;5.23;66.31;99349.60;113608;1192;96323;-71
2021/10/15 02:25:09;;;;;;;18.70;8.20;;;;;;;5.25;66.29;99348.45;113383;1193;96292;-72
2021/10/15 02:27:37;;;;;;;19.40;9.20;;;;;;;5.26;66.30;99351.92;113603;1192;109816;-71
2021/10/15 02:30:07;;;;;;;21.20;9.80;;;;;;;5.27;66.40;99352.61;113657;1193;96196;-71
2021/10/15 02:32:35;;;;;;;19.90;8.90;;;;;;;5.27;66.26;99350.46;115081;1191;107530;-71
2021/10/15 02:35:05;;;;;;;20.20;8.90;;;;;;;5.26;66.44;99342.43;113497;1192;95150;-71
2021/10/15 02:37:32;;;;;;;20.30;8.90;;;;;;;5.27;66.40;99339.20;113684;1193;94441;-71
2021/10/15 02:40:00;;;;;;;19.60;8.80;;;;;;;5.29;66.44;99340.34;113621;1192;110397;-72
2021/10/15 02:42:28;;;;;;;20.70;9.10;;;;;;;5.30;66.30;99340.98;113473;1193;96193;-71
2021/10/15 02:44:56;;;;;;;21.60;8.90;;;;;;;5.30;66.41;99337.48;113699;1192;107595;-72
2021/10/15 02:47:25;;;;;;;20.30;9.40;;;;;;;5.32;66.52;99341.95;113769;1192;96747;-72
2021/10/15 02:49:52;;;;;;;19.60;8.80;;;;;;;5.34;66.40;99335.55;113797;1192;94009;-73
2021/10/15 02:52:20;;;;;;;19.70;8.70;;;;;;;5.35;66.54;99341.79;113768;1191;110199;-71
2021/10/15 02:54:48;;;;;;;20.70;8.70;;;;;;;5.38;66.46;99335.57;113808;1192;94392;-71
2021/10/15 02:57:17;;;;;;;20.40;9.00;;;;;;;5.40;66.52;99333.67;113793;1193;106503;-71
2021/10/15 02:59:45;;;;;;;20.40;9.30;;;;;;;5.42;66.61;99331.30;113753;1191;96220;-71
2021/10/15 03:02:15;;;;;;;20.00;9.20;;;;;;;5.44;66.62;99332.80;113724;1192;96645;-72
2021/10/15 03:04:44;;;;;;;20.90;9.30;;;;;;;5.45;66.47;99331.50;113805;1193;109841;-72
2021/10/15 03:07:11;;;;;;;19.70;8.60;;;;;;;5.46;66.59;99326.00;113819;1193;96149;-72
2021/10/15 03:09:39;;;;;;;20.00;8.40;;;;;;;5.47;66.71;99322.78;113663;1193;106550;-72
2021/10/15 03:12:07;;;;;;;19.20;8.20;;;;;;;5.50;66.74;99323.88;113563;1193;96265;-72
2021/10/15 03:14:36;;;;;;;19.00;8.50;;;;;;;5.53;66.52;99323.38;115079;1191;96175;-73
2021/10/15 03:17:04;;;;;;;17.90;8.30;;;;;;;5.57;66.65;99322.34;113854;1192;109786;-72
2021/10/15 03:19:34;;;;;;;16.40;7.60;;;;;;;5.60;66.76;99325.20;113881;1192;96306;-72
2021/10/15 03:22:03;;;;;;;18.90;8.90;;;;;;;5.62;66.75;99324.73;113727;1193;107619;-72
2021/10/15 03:24:31;;;;;;;17.00;7.60;;;;;;;5.64;66.57;99323.77;113906;1192;96246;-70
2021/10/15 03:26:59;;;;;;;19.90;8.00;;;;;;;5.66;66.83;99324.02;113769;1193;96217;-72
2021/10/15 03:29:26;;;;;;;17.80;7.50;;;;;;;5.68;66.70;99322.90;113739;1192;109830;-72
2021/10/15 03:31:54;;;;;;;20.90;8.80;;;;;;;5.68;66.75;99323.05;113645;1193;94455;-70
2021/10/15 03:34:22;;;;;;;18.20;8.20;;;;;;;5.71;66.88;99322.05;114246;1193;107568;-72
2021/10/15 03:36:51;;;;;;;19.00;8.30;;;;;;;5.73;66.92;99316.13;113840;1193;96194;-73
2021/10/15 03:39:19;;;;;;;18.30;8.20;;;;;;;5.75;66.87;99313.92;113835;1193;96218;-69
2021/10/15 03:41:47;;;;;;;19.60;8.00;;;;;;;5.77;66.69;99318.04;113763;1192;109650;-71
2021/10/15 03:44:15;;;;;;;19.50;8.40;;;;;;;5.77;66.83;99318.05;113727;1192;96163;-69
2021/10/15 03:46:43;;;;;;;17.30;8.00;;;;;;;5.78;66.92;99316.55;113737;1192;108077;-70
2021/10/15 03:49:11;;;;;;;19.70;8.50;;;;;;;5.81;66.82;99318.00;113801;1193;96301;-71
2021/10/15 03:51:44;;;;;;;17.40;7.70;;;;;;;5.83;66.88;99319.14;113879;1192;96268;-70
2021/10/15 03:54:12;;;;;;;16.50;7.10;;;;;;;5.84;66.80;99320.70;113855;1192;109797;-71
2021/10/15 03:56:39;;;;;;;17.80;8.00;;;;;;;5.85;66.88;99320.98;113850;1192;96290;-70
2021/10/15 03:59:07;;;;;;;15.60;7.10;;;;;;;5.87;66.98;99320.52;113805;1193;107514;-70
2021/10/15 04:01:35;;;;;;;17.20;7.80;;;;;;;5.90;66.96;99323.04;113889;1192;96162;-71
2021/10/15 04:04:04;;;;;;;18.40;8.10;;;;;;;5.92;66.91;99321.88;113861;1192;93875;-71
2021/10/15 04:06:31;;;;;;;19.20;8.90;;;;;;;5.94;66.90;99321.25;113881;1192;109397;-71
2021/10/15 04:08:59;;;;;;;18.50;8.20;;;;;;;5.94;66.90;99324.56;113915;1193;96299;-70
2021/10/15 04:11:27;;;;;;;17.00;7.70;;;;;;;5.95;66.93;99315.38;113938;1193;107450;-70
2021/10/15 04:13:55;;;;;;;18.90;8.00;;;;;;;5.95;66.86;99313.44;113815;1193;96296;-69
2021/10/15 04:16:23;;;;;;;19.00;8.60;;;;;;;5.94;66.78;99318.94;113972;1193;97574;-70
2021/10/15 04:18:51;;;;;;;18.80;8.90;;;;;;;5.91;66.76;99318.94;113877;1192;109934;-68
2021/10/15 04:21:20;;;;;;;21.90;8.10;;;;;;;5.89;66.86;99320.60;113880;1193;96278;-71
2021/10/15 04:23:47;;;;;;;17.50;8.00;;;;;;;5.90;66.95;99324.09;113917;1192;107385;-75
2021/10/15 04:26:15;;;;;;;16.50;7.30;;;;;;;5.91;66.90;99324.73;113895;1192;96219;-70
2021/10/15 04:28:45;;;;;;;18.40;8.40;;;;;;;5.92;67.23;99323.08;113834;1192;96299;-69
2021/10/15 04:31:13;;;;;;;20.50;9.00;;;;;;;5.91;67.20;99325.81;113791;1193;109409;-72
2021/10/15 04:33:41;;;;;;;18.90;8.70;;;;;;;5.89;67.19;99318.69;113782;1193;96295;-71
2021/10/15 04:36:10;;;;;;;20.70;8.70;;;;;;;5.91;67.19;99322.48;113883;1192;107548;-69
2021/10/15 04:38:39;;;;;;;20.80;9.30;;;;;;;5.92;67.21;99315.38;113778;1193;96284;-71
2021/10/15 04:41:07;;;;;;;21.10;8.70;;;;;;;5.94;67.21;99311.75;113908;1192;94425;-70
2021/10/15 04:43:35;;;;;;;20.80;8.90;;;;;;;5.97;67.17;99313.70;113880;1192;109809;-71
2021/10/15 04:46:03;;;;;;;19.30;8.10;;;;;;;5.99;67.32;99312.77;113897;1192;96276;-71
2021/10/15 04:48:32;;;;;;;19.30;7.80;;;;;;;6.00;67.33;99314.98;113851;1192;107561;-70
2021/10/15 04:50:59;;;;;;;17.20;7.30;;;;;;;6.01;67.35;99312.16;113652;1192;94395;-72
2021/10/15 04:53:27;;;;;;;19.20;9.00;;;;;;;6.01;67.36;99311.27;113647;1192;94926;-71
2021/10/15 04:55:56;;;;;;;20.70;8.70;;;;;;;6.00;67.31;99313.58;113314;1194;110326;-72
2021/10/15 04:58:23;;;;;;;19.60;8.30;;;;;;;6.01;67.45;99307.55;113522;1192;94425;-72
2021/10/15 05:00:51;;;;;;;22.20;8.60;;;;;;;6.01;67.63;99304.91;113624;1191;106304;-71
2021/10/15 05:03:19;;;;;;;20.50;8.70;;;;;;;6.01;67.69;99308.44;113307;1193;96212;-72
2021/10/15 05:05:47;;;;;;;19.30;8.40;;;;;;;5.99;67.59;99309.38;114018;1193;95068;-71
2021/10/15 05:08:16;;;;;;;19.60;8.70;;;;;;;6.02;67.74;99308.39;113572;1193;109793;-70
2021/10/15 05:10:46;;;;;;;19.40;8.70;;;;;;;6.03;67.80;99314.18;113596;1193;94081;-71
2021/10/15 05:13:14;;;;;;;22.10;8.80;;;;;;;6.03;67.74;99317.65;113540;1193;107969;-72
2021/10/15 05:15:47;;;;;;;20.60;9.20;;;;;;;6.06;67.71;99314.71;113439;1193;95051;-72
2021/10/15 05:18:17;;;;;;;19.20;7.80;;;;;;;6.08;67.56;99310.92;113468;1193;96729;-72
2021/10/15 05:20:45;;;;;;;22.30;9.70;;;;;;;6.12;67.66;99308.41;113449;1194;109932;-71
2021/10/15 05:23:14;;;;;;;21.40;9.20;;;;;;;6.16;67.80;99307.02;113495;1193;96217;-71
2021/10/15 05:25:43;;;;;;;22.80;9.60;;;;;;;6.18;67.61;99310.73;113411;1194;107522;-70
2021/10/15 05:28:11;;;;;;;23.30;10.30;;;;;;;6.21;67.76;99311.30;113416;1193;96175;-69
2021/10/15 05:30:41;;;;;;;24.40;10.60;;;;;;;6.25;67.69;99311.11;113437;1193;95527;-72
2021/10/15 05:33:09;;;;;;;25.20;10.10;;;;;;;6.30;67.77;99308.42;113380;1193;109803;-68
2021/10/15 05:35:38;;;;;;;23.90;10.30;;;;;;;6.35;67.70;99311.31;113447;1193;94285;-71
2021/10/15 05:38:07;;;;;;;21.90;9.80;;;;;;;6.40;67.61;99308.23;113449;1194;107546;-73
2021/10/15 05:40:35;;;;;;;25.60;10.90;;;;;;;6.45;67.72;99307.30;113482;1193;93905;-70
2021/10/15 05:43:03;;;;;;;21.70;9.50;;;;;;;6.49;67.78;99307.43;113496;1193;96200;-72
2021/10/15 05:45:31;;;;;;;22.80;10.00;;;;;;;6.52;67.72;99306.39;113474;1194;109891;-72
2021/10/15 05:47:58;;;;;;;20.50;9.60;;;;;;;6.53;67.90;99300.88;113493;1193;94158;-71
2021/10/15 05:50:28;;;;;;;19.60;9.30;;;;;;;6.51;67.75;99304.48;113450;1194;107487;-72
2021/10/15 05:53:08;;;;;;;20.20;9.10;;;;;;;6.51;67.81;99303.81;113462;1193;95108;-74
2021/10/15 06:00:59;;;;;;;22.70;9.80;;;;;;;6.60;67.70;99299.98;113561;1193;94009;-72
2021/10/15 06:03:29;;;;;;;20.60;9.20;;;;;;;6.66;67.76;99296.85;113911;1193;107533;-73
2021/10/15 06:16:48;;;;;;;20.60;9.80;;;;;;;6.87;67.74;99316.04;113943;1193;107640;-71
2021/10/15 06:19:21;;;;;;;22.10;9.60;;;;;;;6.94;67.60;99315.48;113776;1193;96392;-72
2021/10/15 06:21:52;;;;;;;20.00;10.00;;;;;;;6.96;67.66;99313.41;113895;1193;96290;-71
2021/10/15 06:24:21;;;;;;;20.10;9.90;;;;;;;6.97;67.64;99315.64;113835;1193;109953;-72
2021/10/15 06:26:49;;;;;;;21.20;9.40;;;;;;;6.96;67.59;99311.27;113854;1191;96207;-72
2021/10/15 06:29:17;;;;;;;20.80;10.00;;;;;;;6.95;67.62;99306.22;113907;1192;107480;-70
2021/10/15 06:31:45;;;;;;;21.20;9.50;;;;;;;6.95;67.65;99303.41;113465;1193;96289;-71
2021/10/15 06:34:13;;;;;;;21.10;9.20;;;;;;;6.93;67.48;99307.05;113800;1192;96188;-72
2021/10/15 06:36:41;;;;;;;22.90;10.10;;;;;;;6.89;67.80;99306.74;113423;1192;109796;-72
2021/10/15 06:39:08;;;;;;;24.30;10.70;;;;;;;6.90;67.59;99308.46;113815;1192;96719;-72
2021/10/15 06:41:39;;;;;;;25.50;11.50;;;;;;;6.94;67.51;99308.23;113901;1193;107571;-73
2021/10/15 06:44:07;;;;;;;22.00;10.10;;;;;;;6.97;67.67;99305.95;113838;1192;96317;-73
2021/10/15 06:46:36;;;;;;;23.90;10.60;;;;;;;7.01;67.50;99304.88;113839;1193;93981;-72
2021/10/15 06:49:04;;;;;;;25.60;9.70;;;;;;;7.06;67.53;99305.13;113884;1192;109581;-72
2021/10/15 06:51:33;;;;;;;20.30;9.90;;;;;;;7.10;67.64;99300.71;113751;1193;96265;-72
2021/10/15 06:54:02;;;;;;;20.30;9.20;;;;;;;7.14;67.68;99302.91;113909;1193;107380;-72
2021/10/15 06:56:31;;;;;;;21.40;9.40;;;;;;;7.20;67.69;99304.53;113796;1192;94118;-72
2021/10/15 06:58:59;;;;;;;20.90;9.40;;;;;;;7.28;67.39;99303.77;113306;1192;94692;-73
2021/10/15 07:01:27;;;;;;;21.60;9.60;;;;;;;7.31;67.36;99303.09;113809;1192;109714;-73
2021/10/15 07:03:58;;;;;;;20.60;9.90;;;;;;;7.37;67.51;99301.71;114301;1192;96198;-73
2021/10/15 07:06:26;;;;;;;23.70;9.20;;;;;;;7.41;67.27;99299.00;113839;1192;107492;-75
2021/10/15 07:08:54;;;;;;;20.80;9.00;;;;;;;7.43;66.95;99295.73;113803;1193;94900;-72
2021/10/15 07:11:22;;;;;;;21.10;9.10;;;;;;;7.44;67.07;99292.11;113868;1193;96259;-73
2021/10/15 07:13:49;;;;;;;19.90;9.00;;;;;;;7.54;67.30;99292.63;114149;1192;109298;-73
2021/10/15 07:16:17;;;;;;;22.30;9.50;;;;;;;7.68;67.23;99300.48;113903;1192;94861;-73
2021/10/15 07:18:48;;;;;;;21.20;9.60;;;;;;;7.78;67.20;99296.20;113868;1192;107507;-73
2021/10/15 07:21:16;;;;;;;18.90;8.00;;;;;;;7.88;67.19;99295.79;113876;1192;96309;-73
2021/10/15 07:23:44;;;;;;;21.00;9.80;;;;;;;7.99;67.07;99296.10;113820;1193;94329;-72
2021/10/15 07:26:12;;;;;;;16.10;7.30;;;;;;;8.07;66.78;99296.86;113841;1192;109813;-72
2021/10/15 07:28:43;;;;;;;17.90;8.10;;;;;;;8.11;66.87;99297.83;113717;1193;96200;-72
2021/10/15 07:31:11;;;;;;;18.90;8.50;;;;;;;8.15;66.67;99293.92;113811;1192;107616;-71
2021/10/15 07:33:39;;;;;;;23.10;9.90;;;;;;;8.19;66.64;99292.25;113831;1193;94899;-73
2021/10/15 07:36:07;;;;;;;17.30;7.50;;;;;;;8.26;66.53;99291.11;113865;1192;93882;-73
2021/10/15 07:38:36;;;;;;;17.40;7.20;;;;;;;8.33;66.29;99293.20;113840;1192;108696;-73
2021/10/15 07:41:06;;;;;;;19.70;8.20;;;;;;;8.37;65.81;99294.72;113735;1193;96332;-73
2021/10/15 07:43:35;;;;;;;18.00;7.70;;;;;;;8.40;66.21;99298.77;113625;1192;107286;-73
2021/10/15 07:46:02;;;;;;;20.00;8.40;;;;;;;8.50;66.29;99297.67;113898;1193;94363;-74
2021/10/15 07:48:31;;;;;;;19.90;8.70;;;;;;;8.59;66.13;99298.38;113363;1192;96302;-74
2021/10/15 07:50:59;;;;;;;18.70;7.70;;;;;;;8.61;65.60;99289.59;113668;1193;109787;-74
2021/10/15 07:53:27;;;;;;;17.80;8.10;;;;;;;8.62;65.44;99292.20;113701;1193;96347;-71
2021/10/15 07:55:55;;;;;;;18.20;7.20;;;;;;;8.66;65.15;99292.33;113630;1193;106641;-73
2021/10/15 07:58:22;;;;;;;18.70;8.40;;;;;;;8.71;64.56;99294.11;113774;1192;94202;-73
2021/10/15 08:00:50;;;;;;;21.50;8.20;;;;;;;8.73;64.68;99287.50;113744;1193;93987;-73
2021/10/15 08:03:18;;;;;;;16.60;7.50;;;;;;;8.80;65.00;99284.55;113314;1193;111074;-73
2021/10/15 08:05:49;;;;;;;20.50;8.20;;;;;;;8.94;65.18;99285.65;113766;1193;94491;-73
2021/10/15 08:08:17;;;;;;;18.00;7.80;;;;;;;9.05;65.02;99278.60;113780;1192;106611;-72
2021/10/15 08:10:45;;;;;;;18.90;8.20;;;;;;;9.09;65.00;99279.57;113754;1192;96169;-72
2021/10/15 08:13:13;;;;;;;17.20;7.50;;;;;;;9.13;64.86;99273.70;113890;1192;96646;-73
2021/10/15 08:15:42;;;;;;;18.40;8.10;;;;;;;9.15;64.85;99272.84;113850;1192;109922;-73
2021/10/15 08:18:10;;;;;;;16.60;7.70;;;;;;;9.17;64.61;99271.63;113924;1192;96194;-73
2021/10/15 08:20:38;;;;;;;19.20;7.50;;;;;;;9.18;64.39;99266.79;113677;1192;107562;-74
2021/10/15 08:23:05;;;;;;;17.80;7.80;;;;;;;9.20;63.77;99266.48;113457;1193;96275;-72
2021/10/15 08:25:33;;;;;;;18.80;7.50;;;;;;;9.23;63.91;99265.23;113906;1192;94027;-73
2021/10/15 08:28:01;;;;;;;18.20;8.10;;;;;;;9.32;64.15;99266.31;113895;1192;109788;-74
2021/10/15 08:30:29;;;;;;;19.30;7.70;;;;;;;9.47;63.51;99269.71;113866;1193;96226;-73
2021/10/15 08:32:58;;;;;;;17.10;7.40;;;;;;;9.72;63.38;99269.58;113897;1192;107666;-74
2021/10/15 08:35:26;;;;;;;18.60;8.00;;;;;;;10.01;63.29;99269.07;113889;1192;95012;-72
2021/10/15 08:37:54;;;;;;;19.60;8.50;;;;;;;10.31;63.04;99272.38;113888;1192;96267;-73
2021/10/15 08:40:22;;;;;;;18.30;7.70;;;;;;;10.63;62.95;99269.52;113433;1193;109816;-74
2021/10/15 08:42:58;;;;;;;17.10;7.40;;;;;;;10.98;62.79;99271.31;113865;1192;94049;-74
2021/10/15 08:45:32;;;;;;;20.80;7.20;;;;;;;11.28;60.59;99276.95;113807;1193;107400;-73
2021/10/15 08:48:01;;;;;;;17.80;7.50;;;;;;;11.29;59.91;99275.98;113886;1193;96305;-73
2021/10/15 08:50:42;;;;;;;15.70;6.70;;;;;;;11.41;60.40;99271.45;113498;1193;94018;-73
2021/10/15 08:53:10;;;;;;;18.60;7.20;;;;;;;11.58;60.65;99273.73;113881;1192;108852;-73
2021/10/15 08:55:38;;;;;;;15.60;6.60;;;;;;;11.81;60.02;99272.94;113834;1192;96217;-73
2021/10/15 08:58:06;;;;;;;16.90;7.30;;;;;;;12.00;59.58;99271.23;113846;1192;107539;-74
2021/10/15 09:00:37;;;;;;;16.80;7.00;;;;;;;12.22;59.39;99268.67;113907;1192;96223;-74
2021/10/15 09:03:19;;;;;;;13.60;6.40;;;;;;;12.47;59.38;99264.28;113902;1192;96188;-74
2021/10/15 09:06:09;;;;;;;17.90;6.60;;;;;;;12.69;58.99;99258.48;113459;1193;109818;-74
2021/10/15 09:08:54;;;;;;;16.10;6.60;;;;;;;12.83;58.79;99256.89;113924;1192;96165;-73
2021/10/15 09:11:46;;;;;;;15.50;6.60;;;;;;;13.10;58.63;99258.14;113879;1192;107441;-75
2021/10/15 09:14:27;;;;;;;18.30;7.10;;;;;;;13.51;58.13;99253.48;113888;1192;94189;-75
2021/10/15 09:17:31;;;;;;;17.10;7.10;;;;;;;13.98;58.25;99252.27;113918;1192;93932;-74
2021/10/15 09:20:03;;;;;;;15.60;6.90;;;;;;;14.44;56.81;99252.84;113902;1192;109828;-73
2021/10/15 09:22:35;;;;;;;14.90;6.90;;;;;;;14.80;57.80;99250.81;113903;1192;96681;-73
2021/10/15 09:25:11;;;;;;;12.30;6.20;;;;;;;15.19;57.86;99248.31;113874;1192;107162;-74
2021/10/15 09:27:48;;;;;;;14.90;6.10;;;;;;;15.46;58.04;99248.51;113428;1192;96364;-73
2021/10/15 09:30:20;;;;;;;15.80;6.50;;;;;;;15.60;58.09;99253.60;113878;1192;96194;-75
2021/10/15 09:32:52;;;;;;;15.40;6.40;;;;;;;15.67;57.47;99249.27;113916;1193;109950;-73
2021/10/15 09:35:24;;;;;;;15.20;6.60;;;;;;;15.60;56.82;99248.95;113409;1193;94407;-74
2021/10/15 09:38:00;;;;;;;16.30;6.60;;;;;;;15.53;56.63;99246.80;113884;1192;107593;-74
2021/10/15 09:40:48;;;;;;;12.60;6.20;;;;;;;15.38;55.72;99242.91;113682;1193;96691;-73
2021/10/15 09:43:18;;;;;;;15.00;6.10;;;;;;;15.14;54.23;99241.79;113932;1192;96203;-73
2021/10/15 09:45:52;;;;;;;14.40;6.20;;;;;;;15.06;55.33;99242.05;113881;1192;109772;-74
2021/10/15 09:48:25;;;;;;;14.40;6.20;;;;;;;15.12;55.91;99239.17;113481;1193;95547;-73
2021/10/15 09:51:19;;;;;;;13.70;5.70;;;;;;;15.28;56.28;99236.82;113877;1192;107760;-75
2021/10/15 09:54:18;;;;;;;13.60;6.60;;;;;;;15.45;55.62;99241.58;113847;1193;96152;-74
2021/10/15 09:56:52;;;;;;;13.20;5.90;;;;;;;15.51;55.30;99240.49;113414;1193;96199;-74
2021/10/15 09:59:21;;;;;;;13.80;5.90;;;;;;;15.51;54.76;99234.05;113932;1192;110434;-74
2021/10/15 10:01:49;;;;;;;13.20;6.00;;;;;;;15.48;54.61;99228.39;113926;1192;96326;-74
2021/10/15 10:04:22;;;;;;;12.10;5.90;;;;;;;15.46;53.30;99225.59;113817;1193;108410;-73
2021/10/15 10:06:50;;;;;;;13.80;5.40;;;;;;;15.22;51.62;99219.48;113937;1192;96229;-73
2021/10/15 10:09:19;;;;;;;15.30;5.90;;;;;;;14.99;51.60;99214.61;113905;1192;96216;-74
2021/10/15 10:11:48;;;;;;;12.10;5.60;;;;;;;14.96;52.45;99216.97;113855;1192;109844;-73
2021/10/15 10:14:18;;;;;;;11.80;5.50;;;;;;;14.96;50.79;99216.45;113916;1192;94167;-75
2021/10/15 10:16:52;;;;;;;13.50;5.50;;;;;;;14.83;50.79;99211.86;113893;1192;107509;-71
2021/10/15 10:19:27;;;;;;;12.80;5.30;;;;;;;14.81;51.37;99210.04;113896;1192;96293;-76
2021/10/15 10:21:55;;;;;;;11.90;5.10;;;;;;;14.94;51.67;99214.86;113765;1192;96144;-74
2021/10/15 10:24:31;;;;;;;13.50;5.60;;;;;;;15.02;51.16;99209.83;113834;1193;109508;-75
2021/10/15 10:27:02;;;;;;;11.40;5.20;;;;;;;15.10;51.29;99206.27;113799;1177;96280;-73
2021/10/15 10:29:44;;;;;;;10.90;5.00;;;;;;;15.24;51.41;99208.37;113809;1192;107495;-73
2021/10/15 10:32:16;;;;;;;13.20;5.50;;;;;;;15.36;50.61;99206.11;113746;1192;96215;-73
2021/10/15 10:34:44;;;;;;;12.20;5.10;;;;;;;15.43;51.05;99206.91;113808;1192;95153;-74
2021/10/15 10:37:18;;;;;;;12.30;4.60;;;;;;;15.53;51.26;99198.31;113736;1192;109788;-73
2021/10/15 10:40:09;;;;;;;25.70;6.40;;;;;;;15.60;50.19;99199.44;113846;1193;94866;-75
2021/10/15 10:43:05;;;;;;;16.70;7.00;;;;;;;15.54;49.88;99202.90;113908;1192;107564;-76
2021/10/15 10:45:33;;;;;;;17.20;6.20;;;;;;;15.52;50.60;99202.01;113861;1192;96223;-74
2021/10/15 10:48:08;;;;;;;15.50;6.80;;;;;;;15.65;50.56;99194.03;113867;1192;96228;-74
2021/10/15 10:50:35;;;;;;;14.60;6.40;;;;;;;15.70;49.68;99193.70;113790;1192;109864;-74
2021/10/15 10:53:08;;;;;;;12.70;5.70;;;;;;;15.63;49.82;99189.52;113818;1193;95998;-75
2021/10/15 10:55:42;;;;;;;12.40;5.40;;;;;;;15.67;49.95;99186.64;113895;1193;107311;-74
2021/10/15 10:58:32;;;;;;;11.90;5.30;;;;;;;15.75;49.39;99183.61;113839;1192;96604;-75
2021/10/15 11:01:26;;;;;;;14.10;6.30;;;;;;;15.73;48.28;99170.03;113873;1192;96298;-76
2021/10/15 11:03:59;;;;;;;12.70;5.60;;;;;;;15.51;47.85;99163.84;113847;1192;109831;-75
2021/10/15 11:06:58;;;;;;;14.00;6.00;;;;;;;15.50;48.63;99158.23;113459;1193;96270;-75
2021/10/15 11:09:48;;;;;;;12.40;5.30;;;;;;;15.60;48.65;99152.45;113911;1193;107619;-74
2021/10/15 11:12:43;;;;;;;12.10;5.20;;;;;;;15.67;48.56;99150.56;113916;1193;96978;-77
2021/10/15 11:15:16;;;;;;;11.80;5.40;;;;;;;15.71;48.13;99140.75;113747;1192;94033;-75
2021/10/15 11:17:48;;;;;;;15.80;6.00;;;;;;;15.70;47.07;99138.50;113783;1192;109541;-74
2021/10/15 11:20:37;;;;;;;12.90;5.90;;;;;;;15.57;47.43;99140.77;113872;1192;96345;-77
2021/10/15 11:23:09;;;;;;;13.50;5.80;;;;;;;15.55;47.18;99139.87;113939;1192;107512;-76
2021/10/15 11:25:44;;;;;;;12.50;5.20;;;;;;;15.47;47.21;99139.83;113864;1193;96133;-75
2021/10/15 11:28:17;;;;;;;11.70;5.40;;;;;;;15.50;47.35;99137.27;115377;1191;94166;-74
2021/10/15 11:30:47;;;;;;;14.10;5.40;;;;;;;15.56;47.20;99137.77;113928;1192;109702;-75
2021/10/15 11:33:18;;;;;;;12.80;5.60;;;;;;;15.47;46.92;99136.66;113575;1193;94001;-75
2021/10/15 11:35:51;;;;;;;13.90;6.20;;;;;;;15.44;47.28;99132.48;113913;1192;107492;-74
2021/10/15 11:38:27;;;;;;;11.70;5.70;;;;;;;15.45;46.57;99130.63;113864;1193;96258;-75
2021/10/15 11:40:58;;;;;;;14.70;6.70;;;;;;;15.43;46.98;99132.71;114641;1192;96194;-76
2021/10/15 11:43:33;;;;;;;17.00;6.20;;;;;;;15.49;46.53;99127.90;113417;1193;109879;-76
2021/10/15 11:46:06;;;;;;;12.40;5.90;;;;;;;15.44;47.18;99118.55;113899;1192;96363;-76
2021/10/15 11:48:50;;;;;;;11.80;5.70;;;;;;;15.55;47.32;99116.81;113820;1192;107716;-75
2021/10/15 16:00:52;;;;;;;21.10;9.50;;;;;;;11.05;49.87;98993.85;113438;1193;94358;-75